Time;durP1;ratioP1;P1;durP2;ratioP2;P2;SDS_P1;SDS_P2;PMS_P1;PMS_P2;Temp;Humidity;BMP_temperature;BMP_pressure;BME280_temperature;BME280_humidity;BME280_pressure;Samples;Min_cycle;Max_cycle;Signal;HPM_P1;HPM_P2
2022/07/16 00:03:18;;;;;;;6.23;3.17;;;;;;;14.99;96.34;96611.16;5077903;28;20042;-77
2022/07/16 00:05:45;;;;;;;7.97;3.20;;;;;;;14.95;97.10;96617.81;5081293;28;20115;-78
2022/07/16 00:08:11;;;;;;;6.73;3.40;;;;;;;14.93;97.08;96611.91;5056318;28;20047;-78
2022/07/16 00:10:37;;;;;;;8.57;3.10;;;;;;;14.81;97.63;96611.47;5037630;28;20094;-77
2022/07/16 00:13:02;;;;;;;6.93;3.53;;;;;;;14.87;97.04;96617.91;5088349;28;20103;-77
2022/07/16 00:15:31;;;;;;;10.43;3.50;;;;;;;14.81;97.88;96609.66;5083370;28;20043;-81
2022/07/16 00:20:41;;;;;;;5.30;3.30;;;;;;;14.72;99.41;96610.72;5054496;28;20083;-77
2022/07/16 00:23:07;;;;;;;5.13;3.27;;;;;;;14.60;100.00;96609.47;5049576;28;20033;-77
2022/07/16 00:25:36;;;;;;;6.60;3.60;;;;;;;14.65;100.00;96614.22;5073355;28;20101;-75
2022/07/16 00:28:03;;;;;;;6.27;3.40;;;;;;;14.54;100.00;96623.41;5052918;28;20493;-77
2022/07/16 00:30:29;;;;;;;6.33;3.27;;;;;;;14.46;100.00;96620.78;5052655;28;20056;-77
2022/07/16 00:32:55;;;;;;;7.17;4.20;;;;;;;14.38;100.00;96624.28;5057256;28;20039;-78
2022/07/16 00:35:20;;;;;;;8.20;3.87;;;;;;;14.16;100.00;96620.59;5070533;28;20033;-78
2022/07/16 00:37:46;;;;;;;6.50;3.40;;;;;;;14.10;100.00;96623.91;5085553;28;20036;-78
2022/07/16 00:40:12;;;;;;;6.40;3.70;;;;;;;14.17;100.00;96626.69;5053993;28;20101;-77
2022/07/16 00:42:39;;;;;;;8.77;4.60;;;;;;;14.12;100.00;96624.59;5053777;28;20048;-78
2022/07/16 00:45:05;;;;;;;11.10;5.53;;;;;;;13.80;100.00;96628.97;5059490;28;20051;-80
2022/07/16 00:47:36;;;;;;;8.13;4.33;;;;;;;13.89;100.00;96621.84;5062300;28;20047;-77
2022/07/16 00:50:01;;;;;;;6.77;3.80;;;;;;;13.95;100.00;96630.91;5056301;28;20157;-78
2022/07/16 00:52:27;;;;;;;8.77;4.03;;;;;;;13.95;100.00;96625.59;5069592;28;20028;-77
2022/07/16 00:55:04;;;;;;;6.37;3.67;;;;;;;14.03;100.00;96626.41;5086551;28;20669;-77
2022/07/16 00:57:29;;;;;;;5.40;3.57;;;;;;;13.96;100.00;96624.63;5084295;28;20482;-77
2022/07/16 00:59:55;;;;;;;7.83;4.17;;;;;;;13.95;100.00;96622.97;5063657;28;20035;-77
2022/07/16 01:02:21;;;;;;;8.07;3.47;;;;;;;13.98;100.00;96625.28;5069029;28;20035;-77
2022/07/16 01:04:47;;;;;;;7.90;3.73;;;;;;;13.82;100.00;96629.63;5070270;28;20033;-78
2022/07/16 01:07:14;;;;;;;10.77;3.70;;;;;;;13.93;100.00;96622.34;5051465;28;20447;-77
2022/07/16 01:09:42;;;;;;;9.20;4.17;;;;;;;13.87;100.00;96623.81;5077960;28;20063;-77
2022/07/16 01:12:07;;;;;;;7.90;3.63;;;;;;;13.97;100.00;96624.44;5064666;28;20039;-77
2022/07/16 01:14:34;;;;;;;5.90;3.20;;;;;;;13.77;100.00;96621.38;5039506;28;20043;-79
2022/07/16 01:17:00;;;;;;;7.17;3.87;;;;;;;13.78;100.00;96619.56;5074518;28;20436;-77
2022/07/16 01:19:26;;;;;;;6.40;4.00;;;;;;;13.60;100.00;96627.69;5059496;28;20025;-78
2022/07/16 01:21:51;;;;;;;8.30;3.60;;;;;;;13.61;100.00;96619.59;5052420;28;20391;-78
2022/07/16 01:24:17;;;;;;;7.77;4.17;;;;;;;13.55;100.00;96624.75;5045267;28;20032;-78
2022/07/16 01:26:43;;;;;;;9.87;3.97;;;;;;;13.43;100.00;96625.09;5058015;28;20036;-78
2022/07/16 01:29:09;;;;;;;6.97;3.57;;;;;;;13.50;100.00;96619.13;5059653;28;20493;-77
2022/07/16 01:31:34;;;;;;;8.47;3.50;;;;;;;13.47;100.00;96619.47;5057323;28;20036;-78
2022/07/16 01:36:57;;;;;;;7.00;3.50;;;;;;;13.29;100.00;96631.03;5070998;28;20881;-77
2022/07/16 01:39:25;;;;;;;5.70;3.60;;;;;;;13.17;100.00;96635.78;5051874;28;20060;-77
2022/07/16 01:41:56;;;;;;;6.23;3.23;;;;;;;13.25;100.00;96632.38;5057455;28;20134;-78
2022/07/16 01:44:24;;;;;;;6.90;3.17;;;;;;;13.19;100.00;96631.19;5078981;28;20695;-78
2022/07/16 01:46:54;;;;;;;7.47;3.50;;;;;;;13.25;100.00;96635.03;5057357;28;20028;-78
2022/07/16 01:49:20;;;;;;;6.73;3.67;;;;;;;13.08;100.00;96636.00;5076441;28;20394;-78
2022/07/16 01:51:46;;;;;;;6.60;4.10;;;;;;;12.98;100.00;96642.25;5075283;28;20025;-81
2022/07/16 01:54:12;;;;;;;7.57;4.07;;;;;;;12.80;100.00;96646.00;5070670;28;20634;-77
2022/07/16 01:56:38;;;;;;;7.53;3.90;;;;;;;12.80;100.00;96640.72;5072491;28;20040;-77
2022/07/16 01:59:03;;;;;;;7.90;4.10;;;;;;;12.82;100.00;96631.66;5036178;28;20078;-77
2022/07/16 02:01:29;;;;;;;7.67;4.13;;;;;;;12.96;100.00;96633.66;5038451;28;20033;-78
2022/07/16 02:03:57;;;;;;;6.60;4.00;;;;;;;13.06;100.00;96637.94;5043676;28;20028;-77
2022/07/16 02:06:25;;;;;;;10.33;3.90;;;;;;;13.07;100.00;96631.66;5054136;28;20061;-77
2022/07/16 02:08:51;;;;;;;7.20;4.17;;;;;;;13.07;100.00;96629.03;5067869;28;20089;-78
2022/07/16 02:11:17;;;;;;;6.10;3.93;;;;;;;12.97;100.00;96639.75;5082357;28;20036;-78
2022/07/16 02:13:43;;;;;;;6.77;4.07;;;;;;;12.99;100.00;96635.16;5076973;28;20040;-77
2022/07/16 02:16:09;;;;;;;7.17;3.93;;;;;;;12.92;100.00;96636.78;5069775;28;20016;-77
2022/07/16 02:18:36;;;;;;;5.70;3.67;;;;;;;12.88;100.00;96635.47;5042866;28;20040;-77
2022/07/16 02:21:02;;;;;;;6.30;3.93;;;;;;;12.96;100.00;96638.94;5074524;28;20040;-78
2022/07/16 02:23:29;;;;;;;6.03;3.90;;;;;;;12.94;100.00;96646.22;5075360;28;20039;-77
2022/07/16 02:25:55;;;;;;;6.90;4.20;;;;;;;12.83;100.00;96643.88;5064394;28;20060;-78
2022/07/16 02:28:21;;;;;;;5.63;3.87;;;;;;;12.84;100.00;96650.78;5045108;28;20052;-77
2022/07/16 02:30:49;;;;;;;6.97;4.40;;;;;;;12.63;100.00;96645.16;5053450;28;20082;-77
2022/07/16 02:33:19;;;;;;;6.17;3.73;;;;;;;12.58;100.00;96640.38;5054735;28;20036;-77
2022/07/16 02:35:45;;;;;;;7.80;4.00;;;;;;;12.56;100.00;96641.50;5052788;28;20392;-78
2022/07/16 02:38:12;;;;;;;6.37;4.27;;;;;;;12.62;100.00;96640.88;5055473;28;20032;-78
2022/07/16 02:40:39;;;;;;;6.07;3.70;;;;;;;12.65;100.00;96632.63;5055876;28;20643;-78
2022/07/16 02:43:08;;;;;;;7.23;4.20;;;;;;;12.71;100.00;96629.34;5079459;28;20098;-79
2022/07/16 02:45:35;;;;;;;5.77;3.73;;;;;;;12.62;100.00;96632.97;5075336;28;20032;-79
2022/07/16 02:48:02;;;;;;;8.63;4.43;;;;;;;12.37;100.00;96626.78;5084121;28;20106;-76
2022/07/16 02:50:28;;;;;;;8.10;4.30;;;;;;;12.27;100.00;96637.47;5054940;28;20529;-78
2022/07/16 02:52:54;;;;;;;6.63;3.80;;;;;;;12.27;100.00;96638.31;5053169;28;21023;-78
2022/07/16 02:55:20;;;;;;;6.20;3.97;;;;;;;12.14;100.00;96631.81;5060901;28;20113;-78
2022/07/16 02:57:47;;;;;;;7.10;4.00;;;;;;;12.26;100.00;96634.00;5076658;28;20095;-78
2022/07/16 03:00:16;;;;;;;7.43;4.60;;;;;;;12.16;100.00;96635.13;5056591;28;20052;-78
2022/07/16 03:02:47;;;;;;;6.33;4.07;;;;;;;12.19;100.00;96637.44;5061527;28;20037;-78
2022/07/16 03:05:15;;;;;;;7.73;5.03;;;;;;;12.08;100.00;96628.03;5067942;28;20033;-78
2022/07/16 03:07:41;;;;;;;8.57;3.57;;;;;;;12.18;100.00;96635.81;5057185;28;20099;-78
2022/07/16 03:10:08;;;;;;;6.53;3.90;;;;;;;12.22;100.00;96637.13;5075834;28;20730;-78
2022/07/16 03:12:34;;;;;;;7.20;4.23;;;;;;;12.16;100.00;96630.69;5037889;28;20036;-78
2022/07/16 03:15:02;;;;;;;8.40;4.20;;;;;;;11.93;100.00;96630.41;5037959;28;20033;-78
2022/07/16 03:17:28;;;;;;;9.87;4.60;;;;;;;12.01;100.00;96629.66;5064750;28;20103;-77
2022/07/16 03:19:54;;;;;;;6.50;3.97;;;;;;;12.00;100.00;96630.59;5066293;28;20540;-78
2022/07/16 03:22:20;;;;;;;8.77;4.00;;;;;;;12.03;100.00;96630.28;5063972;28;20159;-78
2022/07/16 03:24:46;;;;;;;7.03;4.30;;;;;;;11.98;100.00;96635.22;5060603;28;20047;-78
2022/07/16 03:27:12;;;;;;;7.10;4.20;;;;;;;12.07;100.00;96636.91;5072576;28;20047;-79
2022/07/16 03:29:40;;;;;;;7.87;4.30;;;;;;;12.13;100.00;96638.06;5083903;28;20024;-77
2022/07/16 03:32:06;;;;;;;6.50;4.50;;;;;;;12.17;100.00;96627.06;5074494;28;20085;-79
2022/07/16 03:34:32;;;;;;;7.87;4.73;;;;;;;12.14;100.00;96634.44;5074357;28;20082;-78
2022/07/16 03:36:58;;;;;;;8.30;5.30;;;;;;;12.19;100.00;96640.09;5071473;28;20035;-77
2022/07/16 03:39:25;;;;;;;10.17;5.00;;;;;;;12.13;100.00;96627.53;5053887;28;20033;-79
2022/07/16 03:41:50;;;;;;;7.80;4.73;;;;;;;12.02;100.00;96632.09;5055097;28;20029;-77
2022/07/16 03:44:16;;;;;;;8.53;4.83;;;;;;;12.16;100.00;96640.41;5067184;28;20491;-77
2022/07/16 03:46:43;;;;;;;7.70;4.67;;;;;;;12.16;100.00;96641.22;5063749;28;20040;-78
2022/07/16 03:49:08;;;;;;;7.67;5.10;;;;;;;12.06;100.00;96642.34;5063444;28;20024;-77
2022/07/16 03:51:34;;;;;;;8.77;4.70;;;;;;;12.08;100.00;96645.66;5058690;28;20033;-77
2022/07/16 03:54:02;;;;;;;8.67;4.70;;;;;;;12.06;100.00;96645.78;5066038;28;20028;-77
2022/07/16 03:56:30;;;;;;;7.07;4.57;;;;;;;12.03;100.00;96646.94;5075989;28;20024;-79
2022/07/16 03:58:56;;;;;;;7.60;4.07;;;;;;;12.21;100.00;96649.50;5069899;28;20043;-77
2022/07/16 04:01:23;;;;;;;7.43;4.60;;;;;;;12.26;100.00;96649.81;5056285;28;20498;-77
2022/07/16 04:03:49;;;;;;;7.30;4.70;;;;;;;12.27;100.00;96653.28;5054125;28;20113;-77
2022/07/16 04:06:15;;;;;;;7.93;4.60;;;;;;;12.30;100.00;96658.25;5037530;28;20805;-78
2022/07/16 04:08:41;;;;;;;8.30;4.77;;;;;;;12.25;100.00;96655.28;5065879;28;20036;-77
2022/07/16 04:11:07;;;;;;;7.93;5.17;;;;;;;12.34;100.00;96666.66;5069968;28;20028;-77
2022/07/16 04:13:33;;;;;;;8.73;4.17;;;;;;;12.37;100.00;96656.63;5072217;28;20089;-77
2022/07/16 04:15:58;;;;;;;10.33;4.13;;;;;;;12.42;100.00;96662.25;5075162;28;20028;-78
2022/07/16 04:18:24;;;;;;;7.23;4.73;;;;;;;12.54;100.00;96665.44;5054122;28;20040;-77
2022/07/16 04:20:50;;;;;;;7.33;4.87;;;;;;;12.54;100.00;96660.16;5059198;28;20039;-77
2022/07/16 04:23:15;;;;;;;5.93;3.93;;;;;;;12.52;100.00;96667.41;5060071;28;20036;-77
2022/07/16 04:25:41;;;;;;;5.93;4.50;;;;;;;12.61;100.00;96665.59;5049795;28;20037;-77
2022/07/16 04:28:07;;;;;;;8.30;4.73;;;;;;;12.60;100.00;96671.84;5035791;28;20029;-77
2022/07/16 04:30:33;;;;;;;8.60;4.57;;;;;;;12.67;100.00;96671.03;5077119;28;20428;-78
2022/07/16 04:32:59;;;;;;;6.30;4.27;;;;;;;12.65;100.00;96666.94;5055835;28;20086;-79
2022/07/16 04:35:24;;;;;;;9.63;4.53;;;;;;;12.62;100.00;96678.63;5067712;28;20028;-77
2022/07/16 04:37:50;;;;;;;8.70;4.57;;;;;;;12.55;100.00;96672.34;5034719;28;20020;-77
2022/07/16 04:40:16;;;;;;;8.23;4.77;;;;;;;12.58;100.00;96674.66;5078990;28;20032;-77
2022/07/16 04:42:46;;;;;;;8.50;4.57;;;;;;;12.59;100.00;96670.22;5058314;28;20034;-77
2022/07/16 04:45:12;;;;;;;7.97;4.50;;;;;;;12.77;100.00;96676.19;5073260;28;20033;-77
2022/07/16 04:47:39;;;;;;;9.37;4.60;;;;;;;12.74;100.00;96677.34;5042712;28;20541;-77
2022/07/16 04:50:06;;;;;;;10.20;4.17;;;;;;;12.92;100.00;96665.84;5055699;28;20048;-77
2022/07/16 04:52:38;;;;;;;7.77;4.37;;;;;;;12.98;100.00;96667.81;5058372;28;20051;-78
2022/07/16 04:55:05;;;;;;;8.27;6.05;;;;;;;13.09;100.00;96670.13;5049780;28;20033;-77
2022/07/16 04:57:30;;;;;;;25.10;10.83;;;;;;;13.15;100.00;96674.75;5068726;28;20028;-79
2022/07/16 04:59:56;;;;;;;38.00;30.07;;;;;;;13.24;100.00;96678.25;5054357;28;20040;-77
2022/07/16 05:05:07;;;;;;;7.53;4.60;;;;;;;13.35;100.00;96679.75;5050916;28;20033;-78
2022/07/16 05:07:33;;;;;;;9.20;4.60;;;;;;;13.50;100.00;96672.78;5037935;28;20054;-77
2022/07/16 05:09:58;;;;;;;9.73;5.50;;;;;;;13.61;100.00;96682.19;5055894;28;20493;-77
2022/07/16 05:12:24;;;;;;;7.10;5.00;;;;;;;13.75;100.00;96686.81;5055547;28;20040;-76
2022/07/16 05:14:50;;;;;;;7.40;5.00;;;;;;;13.81;100.00;96680.00;5069133;28;20032;-77
2022/07/16 05:17:15;;;;;;;7.90;5.13;;;;;;;14.02;100.00;96688.25;5063983;28;20039;-77
2022/07/16 05:19:43;;;;;;;8.23;4.47;;;;;;;14.11;100.00;96692.50;5054792;28;20036;-78
2022/07/16 05:22:09;;;;;;;8.20;4.67;;;;;;;14.32;100.00;96681.38;5068239;28;20033;-77
2022/07/16 05:24:36;;;;;;;9.03;4.57;;;;;;;14.36;100.00;96687.97;5068919;28;20089;-77
2022/07/16 05:27:02;;;;;;;8.33;4.53;;;;;;;14.28;100.00;96689.78;5058139;28;20036;-77
2022/07/16 05:29:28;;;;;;;9.13;4.43;;;;;;;14.49;100.00;96700.66;5075609;28;20071;-77
2022/07/16 05:31:54;;;;;;;8.67;4.97;;;;;;;14.54;100.00;96695.69;5043281;28;20028;-77
2022/07/16 05:34:19;;;;;;;8.23;4.57;;;;;;;14.74;100.00;96690.78;5076166;28;20036;-79
2022/07/16 05:36:45;;;;;;;9.90;5.70;;;;;;;14.91;100.00;96690.69;5043231;28;20063;-78
2022/07/16 05:39:11;;;;;;;9.17;4.73;;;;;;;15.17;100.00;96687.69;5072924;28;20060;-76
2022/07/16 05:41:36;;;;;;;7.57;4.00;;;;;;;15.29;100.00;96684.47;5062710;28;20034;-78
2022/07/16 05:44:02;;;;;;;6.23;4.17;;;;;;;15.56;100.00;96684.91;5062891;28;20059;-79
2022/07/16 05:46:28;;;;;;;9.80;4.20;;;;;;;15.93;99.69;96689.41;5072493;28;20032;-77
2022/07/16 05:48:54;;;;;;;8.37;4.20;;;;;;;16.10;96.82;96689.22;5041670;28;20086;-77
2022/07/16 05:51:21;;;;;;;8.27;4.73;;;;;;;16.26;92.49;96684.56;5061734;28;20017;-80
2022/07/16 05:53:48;;;;;;;10.47;4.77;;;;;;;16.27;91.11;96682.72;5040474;28;20078;-78
2022/07/16 05:56:14;;;;;;;8.73;4.87;;;;;;;16.59;93.77;96692.09;5026654;28;20198;-77
2022/07/16 05:58:39;;;;;;;7.93;4.30;;;;;;;16.83;88.39;96695.47;5072814;28;20031;-78
2022/07/16 06:01:09;;;;;;;8.07;4.60;;;;;;;17.05;84.74;96693.69;5077345;28;20070;-78
2022/07/16 06:03:37;;;;;;;10.13;4.57;;;;;;;17.41;83.07;96683.00;5058789;28;20061;-78
2022/07/16 06:06:02;;;;;;;7.43;4.43;;;;;;;17.41;82.11;96680.34;5045408;28;20043;-78
2022/07/16 06:08:28;;;;;;;9.00;4.27;;;;;;;17.77;80.77;96682.06;5061168;28;20489;-80
2022/07/16 06:10:54;;;;;;;6.87;3.77;;;;;;;17.72;80.31;96689.78;5055451;28;20029;-78
2022/07/16 06:13:20;;;;;;;7.07;3.90;;;;;;;18.00;76.76;96684.50;5070709;28;20052;-78
2022/07/16 06:15:52;;;;;;;6.63;4.10;;;;;;;17.81;77.66;96692.16;5041300;28;20477;-78
2022/07/16 06:18:18;;;;;;;6.88;3.78;;;;;;;18.26;73.86;96692.63;5036243;28;20044;-79
2022/07/16 06:20:49;;;;;;;8.02;3.95;;;;;;;18.49;75.98;96689.69;5057234;28;20370;-78
2022/07/16 06:23:14;;;;;;;12.75;3.90;;;;;;;18.69;69.77;96691.63;5075652;28;20036;-78
2022/07/16 06:25:41;;;;;;;7.20;3.97;;;;;;;18.13;72.50;96692.56;5079780;28;20033;-77
2022/07/16 06:28:06;;;;;;;9.38;3.72;;;;;;;19.11;69.51;96698.53;5055288;28;20054;-79
2022/07/16 06:30:32;;;;;;;10.10;4.00;;;;;;;19.17;68.17;96694.25;5082754;28;20481;-77
2022/07/16 06:32:58;;;;;;;6.85;3.90;;;;;;;19.48;66.98;96705.19;5054089;28;20112;-78
2022/07/16 06:35:23;;;;;;;6.00;3.92;;;;;;;19.64;65.18;96700.50;5041508;28;20032;-78
2022/07/16 06:37:49;;;;;;;17.73;3.90;;;;;;;19.93;60.52;96700.09;5071569;28;20115;-78
2022/07/16 06:40:20;;;;;;;8.60;4.10;;;;;;;19.91;60.27;96702.13;5064591;28;20036;-79
2022/07/16 06:42:47;;;;;;;6.53;3.55;;;;;;;20.67;59.88;96695.44;5047108;28;20039;-78
2022/07/16 06:45:14;;;;;;;6.63;4.10;;;;;;;20.82;56.62;96701.31;5067737;28;20032;-79
2022/07/16 06:47:40;;;;;;;8.13;3.60;;;;;;;20.97;56.73;96705.59;5077911;28;20032;-78
2022/07/16 06:50:05;;;;;;;6.45;3.55;;;;;;;;;;5058959;28;20512;-79
2022/07/16 06:52:31;;;;;;;6.95;3.35;;;;;;;21.78;52.78;96702.22;5071949;28;20454;-78
2022/07/16 06:54:57;;;;;;;7.75;3.85;;;;;;;21.42;54.55;96695.66;5080966;28;20032;-81
2022/07/16 06:57:27;;;;;;;11.77;3.88;;;;;;;22.26;50.20;96694.34;5035173;28;20037;-78
2022/07/16 06:59:53;;;;;;;8.38;3.75;;;;;;;22.43;49.86;96697.28;5053826;28;20143;-78
2022/07/16 07:02:19;;;;;;;7.50;3.50;;;;;;;22.82;46.76;96692.50;5055346;28;20020;-78
2022/07/16 07:04:44;;;;;;;10.15;3.33;;;;;;;22.76;47.03;96691.53;5071935;28;20040;-79
2022/07/16 07:07:19;;;;;;;8.30;3.30;;;;;;;22.57;45.23;96703.34;5072759;28;20139;-78
2022/07/16 07:09:45;;;;;;;8.38;2.95;;;;;;;22.58;46.18;96704.97;5056523;28;20388;-79
2022/07/16 07:12:18;;;;;;;6.40;3.10;;;;;;;23.63;42.55;96701.94;5070708;28;20097;-79
2022/07/16 07:14:44;;;;;;;5.20;3.13;;;;;;;23.94;43.55;96700.84;5072376;28;20431;-79
2022/07/16 07:17:09;;;;;;;8.50;2.80;;;;;;;23.97;40.54;96697.69;5042737;28;20498;-79
2022/07/16 07:19:35;;;;;;;9.63;2.80;;;;;;;23.60;40.68;96702.38;5071979;28;20043;-78
2022/07/16 07:22:01;;;;;;;6.03;2.90;;;;;;;24.01;42.16;96700.75;5042995;28;20037;-79
2022/07/16 07:24:26;;;;;;;7.00;2.92;;;;;;;24.05;39.09;96701.91;5054401;28;20515;-83
2022/07/16 07:26:52;;;;;;;4.13;2.40;;;;;;;24.26;39.41;96702.38;5051468;28;20068;-82
2022/07/16 07:29:18;;;;;;;5.97;2.60;;;;;;;24.23;38.40;96701.78;5074180;28;20028;-80
2022/07/16 07:31:43;;;;;;;5.63;2.33;;;;;;;24.83;37.40;96703.34;5048386;28;20064;-80
2022/07/16 07:34:09;;;;;;;7.80;2.92;;;;;;;24.69;37.63;96694.75;5081088;28;20485;-79
2022/07/16 07:36:35;;;;;;;7.03;2.13;;;;;;;24.76;37.30;96699.19;5065792;28;20105;-83
2022/07/16 07:39:00;;;;;;;5.75;2.28;;;;;;;25.31;35.72;96696.75;5076064;28;20056;-81
2022/07/16 07:41:26;;;;;;;5.25;2.28;;;;;;;25.44;35.37;96698.34;5069603;28;20124;-80
2022/07/16 07:43:52;;;;;;;7.30;2.30;;;;;;;25.72;35.75;96702.03;5063752;28;20035;-80
2022/07/16 07:46:18;;;;;;;5.75;1.90;;;;;;;26.31;34.68;96692.50;5068136;28;20024;-81
2022/07/16 07:48:43;;;;;;;5.07;2.25;;;;;;;26.02;33.83;96688.28;5068916;28;20051;-81
2022/07/16 07:51:12;;;;;;;6.80;2.42;;;;;;;26.77;33.01;96689.63;5046408;28;20085;-82
2022/07/16 07:53:38;;;;;;;4.63;1.85;;;;;;;27.06;32.21;96692.09;5061008;28;20050;-81
2022/07/16 07:56:04;;;;;;;3.97;2.03;;;;;;;26.05;33.97;96699.38;5043540;28;20198;-80
2022/07/16 07:58:30;;;;;;;11.43;2.80;;;;;;;26.27;33.44;96704.03;5043092;28;20450;-81
2022/07/16 08:00:56;;;;;;;5.40;1.83;;;;;;;25.88;33.33;96698.56;5068136;28;20071;-81
2022/07/16 08:03:21;;;;;;;6.43;1.70;;;;;;;26.03;33.72;96698.81;5061840;28;20029;-84
2022/07/16 08:05:47;;;;;;;5.43;2.00;;;;;;;25.64;34.00;96698.69;5044389;28;20048;-82
2022/07/16 08:08:13;;;;;;;14.52;7.70;;;;;;;26.20;33.85;96693.41;5075034;28;20083;-79
2022/07/16 08:10:39;;;;;;;6.20;2.13;;;;;;;26.55;34.67;96692.31;5074597;28;20025;-80
2022/07/16 08:13:05;;;;;;;3.30;1.95;;;;;;;25.74;34.16;96695.34;5057955;28;20583;-80
2022/07/16 08:15:31;;;;;;;4.63;2.10;;;;;;;26.77;32.59;96685.03;5062146;28;20071;-79
2022/07/16 08:17:57;;;;;;;7.28;2.10;;;;;;;27.63;32.03;96688.94;5080922;28;20061;-81
2022/07/16 08:20:23;;;;;;;8.98;2.05;;;;;;;27.04;32.40;96685.09;5058500;28;20257;-79
2022/07/16 08:22:49;;;;;;;4.07;1.95;;;;;;;27.71;31.64;96693.88;5045270;28;20992;-82
2022/07/16 08:27:59;;;;;;;6.60;2.20;;;;;;;28.17;30.52;96686.97;5056799;28;20086;-82
2022/07/16 08:30:26;;;;;;;6.13;2.28;;;;;;;28.68;29.97;96675.63;5046428;28;20037;-81
2022/07/16 08:32:52;;;;;;;7.40;1.83;;;;;;;27.73;29.74;96681.75;5066672;28;20127;-80
2022/07/16 08:35:17;;;;;;;4.43;1.60;;;;;;;28.41;27.80;96676.59;5047868;28;20056;-81
2022/07/16 08:37:46;;;;;;;5.75;2.00;;;;;;;27.85;28.34;96689.69;5058905;28;20036;-80
2022/07/16 08:40:20;;;;;;;4.00;1.48;;;;;;;29.46;26.60;96678.31;5060264;28;20036;-79
2022/07/16 08:42:47;;;;;;;6.10;2.08;;;;;;;27.84;30.03;96681.84;5045173;28;20096;-82
2022/07/16 08:45:15;;;;;;;5.43;2.47;;;;;;;27.97;31.06;96689.53;5053732;28;20036;-78
2022/07/16 08:47:41;;;;;;;3.45;1.58;;;;;;;27.89;30.60;96677.28;5070408;28;20028;-82
2022/07/16 08:50:13;;;;;;;4.80;1.90;;;;;;;27.76;31.24;96691.22;5042104;28;20028;-82
2022/07/16 08:52:48;;;;;;;3.85;1.92;;;;;;;28.64;30.00;96675.34;5054135;28;20134;-80
2022/07/16 08:55:14;;;;;;;4.28;1.85;;;;;;;28.49;28.41;96682.56;5046353;28;20035;-82
2022/07/16 08:57:40;;;;;;;4.55;1.90;;;;;;;28.09;28.86;96686.63;5059027;28;20029;-84
2022/07/16 09:00:11;;;;;;;4.43;1.48;;;;;;;27.31;29.17;96689.72;5038587;28;20094;-82
2022/07/16 09:02:37;;;;;;;7.32;2.22;;;;;;;28.75;28.46;96687.03;5044144;28;20126;-81
2022/07/16 09:05:04;;;;;;;4.30;2.25;;;;;;;29.73;27.48;96691.66;5087018;28;20076;-82
2022/07/16 09:07:30;;;;;;;3.75;1.60;;;;;;;29.59;26.85;96690.53;5060023;28;20804;-80
2022/07/16 09:09:55;;;;;;;2.58;1.55;;;;;;;30.18;27.02;96690.06;5038792;28;20051;-81
2022/07/16 09:12:33;;;;;;;2.92;1.45;;;;;;;30.00;25.71;96696.00;5041942;28;20028;-81
2022/07/16 09:14:59;;;;;;;4.25;2.00;;;;;;;29.96;26.46;96693.03;5045254;28;20032;-82
2022/07/16 09:17:28;;;;;;;4.65;2.05;;;;;;;29.54;27.01;96687.81;5041528;28;20116;-81
2022/07/16 09:19:54;;;;;;;6.00;1.92;;;;;;;29.46;27.01;96686.44;5057137;28;20033;-82
2022/07/16 09:22:20;;;;;;;4.63;1.38;;;;;;;29.33;27.47;96689.69;5038610;28;20032;-83
2022/07/16 09:24:52;;;;;;;4.70;1.75;;;;;;;29.34;27.36;96691.31;5053826;28;20052;-81
2022/07/16 09:27:23;;;;;;;7.70;1.58;;;;;;;29.08;26.38;96693.97;5054732;28;20037;-84
2022/07/16 09:30:03;;;;;;;5.83;1.97;;;;;;;28.90;26.73;96697.91;5039757;28;20111;-81
2022/07/16 09:32:29;;;;;;;5.53;1.90;;;;;;;29.31;27.65;96689.97;5053069;28;20470;-81
2022/07/16 09:35:04;;;;;;;4.82;1.60;;;;;;;29.92;25.02;96700.06;5064660;28;20033;-82
2022/07/16 09:37:56;;;;;;;4.30;1.40;;;;;;;30.01;25.16;96687.59;5034369;28;20036;-81
2022/07/16 09:40:41;;;;;;;1.90;1.00;;;;;;;30.52;24.31;96687.53;5064079;28;20029;-81
2022/07/16 09:43:13;;;;;;;3.30;1.30;;;;;;;29.69;24.55;96695.19;5068327;28;20233;-81
2022/07/16 09:46:02;;;;;;;3.88;1.27;;;;;;;30.91;23.66;96681.44;5055629;28;20047;-82
2022/07/16 09:48:35;;;;;;;3.78;1.48;;;;;;;30.10;23.98;96695.19;5058789;28;20367;-82
2022/07/16 09:51:20;;;;;;;7.15;3.97;;;;;;;29.94;24.36;96695.19;5059975;28;20028;-82
2022/07/16 09:53:48;;;;;;;4.60;1.63;;;;;;;29.98;23.71;96690.03;5064930;28;20135;-82
2022/07/16 09:56:17;;;;;;;5.22;1.50;;;;;;;29.52;25.34;96690.00;5038945;28;20082;-82
2022/07/16 09:58:49;;;;;;;3.72;1.20;;;;;;;30.53;25.17;96691.06;5064105;28;20047;-82
2022/07/16 10:01:17;;;;;;;4.60;1.73;;;;;;;30.00;24.47;96694.09;5077276;28;20056;-82
2022/07/16 10:03:44;;;;;;;2.65;1.50;;;;;;;29.24;25.11;96689.41;5050576;28;20044;-82
2022/07/16 10:06:10;;;;;;;3.28;1.40;;;;;;;30.31;22.97;96683.22;5038057;28;20759;-81
2022/07/16 10:08:39;;;;;;;3.25;1.40;;;;;;;31.48;22.37;96675.72;5048748;28;20020;-81
2022/07/16 10:11:05;;;;;;;3.88;1.30;;;;;;;31.07;23.53;96681.38;5053311;28;20032;-82
2022/07/16 10:13:32;;;;;;;9.32;4.28;;;;;;;31.85;22.77;96680.59;5060308;28;20032;-82
2022/07/16 10:15:58;;;;;;;5.07;2.22;;;;;;;31.92;22.69;96675.69;5052753;28;20115;-81
2022/07/16 10:18:42;;;;;;;3.75;1.45;;;;;;;31.73;23.00;96669.31;5037503;28;20064;-82
2022/07/16 10:21:16;;;;;;;1.90;1.13;;;;;;;31.34;22.08;96673.63;5055317;28;20112;-84
2022/07/16 10:23:48;;;;;;;3.60;1.20;;;;;;;32.00;22.00;96674.28;5047522;28;20044;-82
2022/07/16 10:26:21;;;;;;;3.20;1.50;;;;;;;31.99;23.41;96673.44;5048153;28;20036;-82
2022/07/16 10:28:54;;;;;;;3.75;1.58;;;;;;;30.44;23.56;96679.13;5047483;28;20401;-81
2022/07/16 10:31:38;;;;;;;5.68;1.50;;;;;;;30.30;23.20;96685.13;5058119;28;20043;-80
2022/07/16 10:34:13;;;;;;;4.20;1.60;;;;;;;30.51;23.59;96687.81;5050787;28;20098;-81
2022/07/16 10:36:55;;;;;;;3.10;1.33;;;;;;;32.02;23.04;96667.44;5035356;28;20028;-81
2022/07/16 10:39:25;;;;;;;;;;;;;;;31.42;23.15;96675.78;5041742;28;20047;-81
2022/07/16 10:42:00;;;;;;;2.88;1.45;;;;;;;30.73;24.14;96677.41;5061033;28;19966;-77
2022/07/16 10:44:48;;;;;;;4.88;1.45;;;;;;;31.22;23.74;96678.56;5042046;28;20032;-78
2022/07/16 10:47:15;;;;;;;3.03;1.23;;;;;;;31.56;22.75;96686.03;5041361;28;20057;-79
2022/07/16 10:49:41;;;;;;;4.05;1.70;;;;;;;31.49;22.29;96686.34;5049835;28;20103;-79
2022/07/16 10:52:14;;;;;;;2.65;1.42;;;;;;;31.70;21.15;96678.84;5082012;28;20476;-80
2022/07/16 10:54:41;;;;;;;3.22;1.02;;;;;;;31.91;22.00;96687.66;5047817;28;20028;-78
2022/07/16 10:57:11;;;;;;;3.17;1.30;;;;;;;31.74;22.31;96682.59;5057458;28;20055;-79
2022/07/16 10:59:39;;;;;;;3.30;1.30;;;;;;;31.55;21.76;96678.94;5045618;28;20425;-79
2022/07/16 11:02:07;;;;;;;3.35;1.38;;;;;;;31.93;22.29;96685.47;5059249;28;20035;-79
2022/07/16 11:04:38;;;;;;;3.00;1.13;;;;;;;31.88;21.66;96690.94;5072922;28;20031;-79
2022/07/16 11:07:13;;;;;;;4.25;1.70;;;;;;;30.70;22.47;96693.44;5056345;28;20737;-79
2022/07/16 11:09:45;;;;;;;4.45;1.30;;;;;;;30.88;22.27;96683.91;5055235;28;20469;-80
2022/07/16 11:12:25;;;;;;;4.70;2.40;;;;;;;30.12;23.43;96688.41;5059277;28;20027;-79
2022/07/16 11:14:53;;;;;;;4.80;1.20;;;;;;;30.95;22.29;96689.84;5065575;28;20052;-79
2022/07/16 11:17:25;;;;;;;3.90;1.38;;;;;;;30.47;22.24;96684.03;5077050;28;20059;-80
2022/07/16 11:19:55;;;;;;;1.67;1.30;;;;;;;30.85;22.02;96676.31;5067131;28;20111;-80
2022/07/16 11:22:23;;;;;;;3.42;1.38;;;;;;;30.28;23.29;96679.19;5068424;28;20028;-79
2022/07/16 11:25:05;;;;;;;4.40;2.13;;;;;;;30.12;23.31;96676.75;5049067;28;20044;-77
2022/07/16 11:27:35;;;;;;;5.63;2.15;;;;;;;30.49;23.44;96679.94;5064233;28;20544;-81
2022/07/16 11:30:05;;;;;;;4.10;1.65;;;;;;;31.68;21.99;96672.84;5060496;28;20058;-80
2022/07/16 11:32:31;;;;;;;4.95;1.63;;;;;;;31.92;22.04;96670.25;5057487;28;20093;-81
2022/07/16 11:35:05;;;;;;;2.22;1.23;;;;;;;32.24;21.49;96677.03;5061117;28;21093;-80
2022/07/16 11:37:55;;;;;;;3.60;1.60;;;;;;;31.49;22.91;96675.47;5075773;28;20040;-82
2022/07/16 11:40:32;;;;;;;3.53;1.40;;;;;;;31.87;22.49;96679.25;5043037;28;20058;-81
2022/07/16 11:42:59;;;;;;;6.18;4.18;;;;;;;32.74;22.04;96683.06;5055674;28;20776;-82
2022/07/16 11:45:27;;;;;;;11.10;9.80;;;;;;;32.36;21.88;96681.00;5052254;28;20036;-82